This is the latest recevied weather packets stored in our database for station/object KC7WRB. If no packets are shown the sender has not sent any weather packets the latest 1 day(s).
| Time | Temp. | Humidity | Pressure | Rain* | Wind** | Luminosity | Snow |
|---|---|---|---|---|---|---|---|
| 1778054198 | 10.56° C | 73% | 1017 hPa | 0 mm | - | 0 W/m² | - |
| 1778053593 | 10° C | 72% | 1016.8 hPa | 0 mm | - | 0 W/m² | - |
| 1778052987 | 11.67° C | 68% | 1016.8 hPa | 0 mm | - | 0 W/m² | - |
| 1778052685 | 11.67° C | 65% | 1016.7 hPa | 0 mm | - | 0 W/m² | - |
| 1778052079 | 11.11° C | 69% | 1016.3 hPa | 0 mm | - | 0 W/m² | - |
| 1778051777 | 11.11° C | 70% | 1016.2 hPa | 0 mm | - | 0 W/m² | - |
| 1778051474 | 10.56° C | 71% | 1016.4 hPa | 0 mm | - | 0 W/m² | - |
| 1778051171 | 10.56° C | 72% | 1016.1 hPa | 0 mm | - | 0 W/m² | - |
| 1778050868 | 10.56° C | 73% | 1016.4 hPa | 0 mm | - | 0 W/m² | - |
| 1778050262 | 10.56° C | 74% | 1016.3 hPa | 0 mm | - | 0 W/m² | - |
| 1778049654 | 11.11° C | 71% | 1016.3 hPa | 0 mm | - | 0 W/m² | - |
| 1778049353 | 11.67° C | 68% | 1016.2 hPa | 0 mm | - | 0 W/m² | - |
| 1778049050 | 11.67° C | 67% | 1016.4 hPa | 0 mm | - | 0 W/m² | - |
| 1778048748 | 10.56° C | 68% | 1016.7 hPa | 0 mm | - | 0 W/m² | - |
| 1778048445 | 10.56° C | 73% | 1016.5 hPa | 0 mm | - | 0 W/m² | - |
| 1778047838 | 10.56° C | 77% | 1016.7 hPa | 0 mm | - | 0 W/m² | - |
| 1778047537 | 10° C | 78% | 1016.4 hPa | 0 mm | - | 0 W/m² | - |
| 1778047234 | 10.56° C | 79% | 1016.7 hPa | 0 mm | - | 0 W/m² | - |
| 1778046931 | 10° C | 78% | 1016.2 hPa | 0 mm | - | 0 W/m² | - |
| 1778046020 | 9.44° C | 85% | 1016.2 hPa | 4.83 mm | - | 0 W/m² | - |
| 1778045718 | 8.89° C | 87% | 1016.7 hPa | 14.99 mm | - | 0 W/m² | - |
| 1778045115 | 10.56° C | 80% | 1017.7 hPa | 13.72 mm | - | 0 W/m² | - |
| 1778044812 | 13.33° C | 61% | 1017.8 hPa | 0 mm | - | 0 W/m² | - |
| 1778044509 | 13.33° C | 62% | 1016.8 hPa | 0 mm | - | 0 W/m² | - |
| 1778043602 | 12.78° C | 62% | 1015 hPa | 0 mm | - | 0 W/m² | - |
* Rain latest hour (hover to see other rain measurements)
** Current wind speed in m/s (hover to see current wind gust speed)